createdAt,value
2018-02-18T00:00:14.610Z,1.03
2018-02-18T00:01:14.563Z,1.06
2018-02-18T00:02:14.556Z,1.02
2018-02-18T00:03:14.600Z,1.02
2018-02-18T00:04:14.587Z,1
2018-02-18T00:05:14.659Z,1.02
2018-02-18T00:06:14.608Z,1.04
2018-02-18T00:07:14.583Z,1.03
2018-02-18T00:08:14.593Z,1.02
2018-02-18T00:09:14.648Z,1.02
2018-02-18T00:10:14.779Z,1
2018-02-18T00:11:14.779Z,0.98
2018-02-18T00:12:14.786Z,0.99
2018-02-18T00:13:14.589Z,0.98
2018-02-18T00:14:14.756Z,0.99
2018-02-18T00:15:14.773Z,0.98
2018-02-18T00:16:14.769Z,0.99
2018-02-18T00:17:14.607Z,0.95
2018-02-18T00:18:14.626Z,0.96
2018-02-18T00:19:14.617Z,0.93
2018-02-18T00:20:14.641Z,0.96
2018-02-18T00:21:14.624Z,0.96
2018-02-18T00:22:14.605Z,0.95
2018-02-18T00:23:14.660Z,0.93
2018-02-18T00:24:14.631Z,0.93
2018-02-18T00:25:14.638Z,0.92
2018-02-18T00:26:14.629Z,0.91
2018-02-18T00:27:14.623Z,0.93
2018-02-18T00:28:14.627Z,0.92
2018-02-18T00:29:14.635Z,0.92
2018-02-18T00:30:15.205Z,0.85
2018-02-18T00:31:14.635Z,0.82
2018-02-18T00:32:14.647Z,0.79
2018-02-18T00:33:14.637Z,0.79
2018-02-18T00:34:14.639Z,0.82
2018-02-18T00:35:14.664Z,0.81
2018-02-18T00:36:14.652Z,0.75
2018-02-18T00:37:14.648Z,0.69
2018-02-18T00:38:14.653Z,0.68
2018-02-18T00:39:14.662Z,0.74
2018-02-18T00:40:14.709Z,0.75
2018-02-18T00:41:14.678Z,0.74
2018-02-18T00:42:14.700Z,0.76
2018-02-18T00:43:14.679Z,0.72
2018-02-18T00:44:14.689Z,0.78
2018-02-18T00:45:14.690Z,0.75
2018-02-18T00:46:14.703Z,0.76
2018-02-18T00:47:14.737Z,0.79
2018-02-18T00:48:14.711Z,0.78
2018-02-18T00:49:14.717Z,0.81
2018-02-18T00:50:14.708Z,0.74
2018-02-18T00:51:14.714Z,0.72
2018-02-18T00:52:14.726Z,0.72
2018-02-18T00:53:14.729Z,0.76
2018-02-18T00:54:14.878Z,0.74
2018-02-18T00:55:14.866Z,0.75
2018-02-18T00:56:14.728Z,0.72
2018-02-18T00:57:14.740Z,0.69
2018-02-18T00:58:14.911Z,0.64
2018-02-18T00:59:14.911Z,0.67
2018-02-18T01:00:14.903Z,0.65
2018-02-18T01:01:14.752Z,0.64
2018-02-18T01:02:14.754Z,0.61
2018-02-18T01:03:14.744Z,0.6
2018-02-18T01:04:14.780Z,0.58
2018-02-18T01:05:14.920Z,0.6
2018-02-18T01:06:14.912Z,0.6
2018-02-18T01:07:14.759Z,0.61
2018-02-18T01:08:14.759Z,0.61
2018-02-18T01:09:14.934Z,0.64
2018-02-18T01:10:14.949Z,0.63
2018-02-18T01:11:14.934Z,0.65
2018-02-18T01:12:14.937Z,0.63
2018-02-18T01:13:14.780Z,0.65
2018-02-18T01:14:15.000Z,0.67
2018-02-18T01:15:15.109Z,0.65
2018-02-18T01:16:14.947Z,0.68
2018-02-18T01:17:14.955Z,0.68
2018-02-18T01:18:14.976Z,0.67
2018-02-18T01:19:14.804Z,0.65
2018-02-18T01:20:14.845Z,0.58
2018-02-18T01:21:14.810Z,0.55
2018-02-18T01:22:14.816Z,0.54
2018-02-18T01:23:14.820Z,0.55
2018-02-18T01:24:14.823Z,0.54
2018-02-18T01:25:14.844Z,0.53
2018-02-18T01:26:14.811Z,0.53
2018-02-18T01:27:14.830Z,0.54
2018-02-18T01:28:14.987Z,0.54
2018-02-18T01:29:14.834Z,0.5
2018-02-18T01:30:14.827Z,0.51
2018-02-18T01:31:14.993Z,0.5
2018-02-18T01:32:14.840Z,0.53
2018-02-18T01:33:14.852Z,0.51
2018-02-18T01:34:14.854Z,0.53
2018-02-18T01:35:14.847Z,0.53
2018-02-18T01:36:15.039Z,0.51
2018-02-18T01:37:15.129Z,0.51
2018-02-18T01:38:14.870Z,0.48
2018-02-18T01:39:14.868Z,0.5
2018-02-18T01:40:14.875Z,0.5
2018-02-18T01:41:14.876Z,0.5
2018-02-18T01:42:14.906Z,0.47
2018-02-18T01:43:14.899Z,0.46
2018-02-18T01:44:14.890Z,0.48
2018-02-18T01:45:14.904Z,0.5
2018-02-18T01:46:14.891Z,0.48
2018-02-18T01:47:15.116Z,0.48
2018-02-18T01:48:14.907Z,0.44
2018-02-18T01:49:14.913Z,0.43
2018-02-18T01:50:14.917Z,0.41
2018-02-18T01:51:14.926Z,0.41
2018-02-18T01:52:14.945Z,0.43
2018-02-18T01:53:14.917Z,0.4
2018-02-18T01:54:14.920Z,0.37
2018-02-18T01:55:14.929Z,0.37
2018-02-18T01:56:14.927Z,0.36
2018-02-18T01:57:14.942Z,0.32
2018-02-18T01:58:14.934Z,0.27
2018-02-18T01:59:14.959Z,0.27
2018-02-18T02:00:14.952Z,0.25
2018-02-18T02:01:14.943Z,0.26
2018-02-18T02:02:15.204Z,0.25
2018-02-18T02:03:14.950Z,0.22
2018-02-18T02:04:14.953Z,0.25
2018-02-18T02:05:15.110Z,0.25
2018-02-18T02:06:15.131Z,0.26
2018-02-18T02:07:15.465Z,0.26
2018-02-18T02:08:15.125Z,0.25
2018-02-18T02:09:15.129Z,0.23
2018-02-18T02:10:15.163Z,0.23
2018-02-18T02:11:15.144Z,0.22
2018-02-18T02:12:15.174Z,0.19
2018-02-18T02:13:15.146Z,0.22
2018-02-18T02:14:14.999Z,0.22
2018-02-18T02:15:15.154Z,0.19
2018-02-18T02:16:15.196Z,0.15
2018-02-18T02:17:15.165Z,0.09
2018-02-18T02:18:15.174Z,0.1
2018-02-18T02:19:15.034Z,0.09
2018-02-18T02:20:15.034Z,0.06
2018-02-18T02:21:15.200Z,0.03
2018-02-18T02:22:15.203Z,0.03
2018-02-18T02:23:15.046Z,0.03
2018-02-18T02:24:15.029Z,0.05
2018-02-18T02:25:15.036Z,0.06
2018-02-18T02:26:15.057Z,0.02
2018-02-18T02:27:15.048Z,-0.01
2018-02-18T02:28:15.117Z,0.01
2018-02-18T02:29:15.054Z,0.01
2018-02-18T02:30:15.079Z,-0.02
2018-02-18T02:31:15.067Z,0.01
2018-02-18T02:32:15.084Z,-0.02
2018-02-18T02:33:15.096Z,-0.04
2018-02-18T02:34:15.078Z,-0.05
2018-02-18T02:35:15.086Z,-0.04
2018-02-18T02:36:15.093Z,-0.05
2018-02-18T02:37:15.084Z,-0.08
2018-02-18T02:38:15.384Z,-0.07
2018-02-18T02:39:15.098Z,-0.08
2018-02-18T02:40:15.090Z,-0.11
2018-02-18T02:41:15.107Z,-0.14
2018-02-18T02:42:15.084Z,-0.15
2018-02-18T02:43:15.262Z,-0.21
2018-02-18T02:44:15.097Z,-0.23
2018-02-18T02:45:15.090Z,-0.22
2018-02-18T02:46:15.089Z,-0.21
2018-02-18T02:47:15.097Z,-0.25
2018-02-18T02:48:15.115Z,-0.23
2018-02-18T02:49:15.092Z,-0.26
2018-02-18T02:50:15.106Z,-0.29
2018-02-18T02:51:15.108Z,-0.28
2018-02-18T02:52:15.206Z,-0.29
2018-02-18T02:53:15.363Z,-0.26
2018-02-18T02:54:15.104Z,-0.26
2018-02-18T02:55:15.126Z,-0.3
2018-02-18T02:56:15.135Z,-0.3
2018-02-18T02:57:15.139Z,-0.32
2018-02-18T02:58:15.145Z,-0.33
2018-02-18T02:59:15.121Z,-0.35
2018-02-18T03:00:15.133Z,-0.36
2018-02-18T03:01:15.132Z,-0.36
2018-02-18T03:02:15.169Z,-0.37
2018-02-18T03:03:15.171Z,-0.4
2018-02-18T03:04:15.171Z,-0.39
2018-02-18T03:05:15.154Z,-0.39
2018-02-18T03:06:15.155Z,-0.42
2018-02-18T03:07:15.172Z,-0.43
2018-02-18T03:08:15.197Z,-0.49
2018-02-18T03:09:15.185Z,-0.49
2018-02-18T03:10:15.194Z,-0.51
2018-02-18T03:11:15.190Z,-0.53
2018-02-18T03:12:15.203Z,-0.53
2018-02-18T03:13:15.231Z,-0.57
2018-02-18T03:14:15.239Z,-0.57
2018-02-18T03:15:15.250Z,-0.58
2018-02-18T03:16:15.210Z,-0.58
2018-02-18T03:17:15.376Z,-0.58
2018-02-18T03:18:15.403Z,-0.6
2018-02-18T03:19:15.416Z,-0.65
2018-02-18T03:20:15.384Z,-0.71
2018-02-18T03:21:15.386Z,-0.7
2018-02-18T03:22:15.392Z,-0.73
2018-02-18T03:23:15.426Z,-0.78
2018-02-18T03:24:15.408Z,-0.86
2018-02-18T03:25:15.414Z,-0.86
2018-02-18T03:26:15.420Z,-0.85
2018-02-18T03:27:15.405Z,-0.86
2018-02-18T03:28:15.443Z,-0.85
2018-02-18T03:29:15.411Z,-0.84
2018-02-18T03:30:15.420Z,-0.88
2018-02-18T03:31:15.263Z,-0.88
2018-02-18T03:32:15.410Z,-0.89
2018-02-18T03:33:15.447Z,-0.86
2018-02-18T03:34:15.447Z,-0.86
2018-02-18T03:35:15.425Z,-0.86
2018-02-18T03:36:15.427Z,-0.92
2018-02-18T03:37:15.431Z,-0.92
2018-02-18T03:38:15.434Z,-0.91
2018-02-18T03:39:15.464Z,-0.91
2018-02-18T03:40:15.302Z,-0.91
2018-02-18T03:41:15.439Z,-0.91
2018-02-18T03:42:15.482Z,-0.91
2018-02-18T03:43:15.308Z,-0.91
2018-02-18T03:44:15.457Z,-0.91
2018-02-18T03:45:15.626Z,-0.92
2018-02-18T03:46:15.304Z,-0.99
2018-02-18T03:47:15.313Z,-1.02
2018-02-18T03:48:15.317Z,-1.01
2018-02-18T03:49:15.306Z,-0.99
2018-02-18T03:50:15.328Z,-1.01
2018-02-18T03:51:15.319Z,-1.01
2018-02-18T03:52:15.321Z,-0.99
2018-02-18T03:53:15.334Z,-0.99
2018-02-18T03:54:15.339Z,-1.01
2018-02-18T03:55:15.342Z,-1.02
2018-02-18T03:56:15.452Z,-1.03
2018-02-18T03:57:15.358Z,-1.03
2018-02-18T03:58:15.355Z,-1.01
2018-02-18T03:59:15.355Z,-1.01
2018-02-18T04:00:15.360Z,-1.02
2018-02-18T04:01:15.380Z,-1.01
2018-02-18T04:02:15.458Z,-1.01
2018-02-18T04:03:15.534Z,-1.05
2018-02-18T04:04:15.365Z,-1.11
2018-02-18T04:05:15.376Z,-1.12
2018-02-18T04:06:15.379Z,-1.18
2018-02-18T04:07:15.409Z,-1.2
2018-02-18T04:08:15.413Z,-1.22
2018-02-18T04:09:15.427Z,-1.19
2018-02-18T04:10:15.408Z,-1.18
2018-02-18T04:11:15.432Z,-1.18
2018-02-18T04:12:15.427Z,-1.18
2018-02-18T04:13:15.449Z,-1.13
2018-02-18T04:14:15.447Z,-1.15
2018-02-18T04:15:15.584Z,-1.15
2018-02-18T04:16:15.448Z,-1.15
2018-02-18T04:17:15.454Z,-1.13
2018-02-18T04:18:15.470Z,-1.15
2018-02-18T04:19:15.730Z,-1.13
2018-02-18T04:20:15.488Z,-1.13
2018-02-18T04:21:15.663Z,-1.15
2018-02-18T04:22:15.490Z,-1.12
2018-02-18T04:23:15.495Z,-1.15
2018-02-18T04:24:15.502Z,-1.13
2018-02-18T04:25:15.509Z,-1.12
2018-02-18T04:26:15.524Z,-1.16
2018-02-18T04:27:15.503Z,-1.13
2018-02-18T04:28:15.505Z,-1.12
2018-02-18T04:29:15.660Z,-1.11
2018-02-18T04:30:15.669Z,-1.12
2018-02-18T04:31:15.713Z,-1.13
2018-02-18T04:32:15.685Z,-1.13
2018-02-18T04:33:15.680Z,-1.11
2018-02-18T04:34:15.699Z,-1.09
2018-02-18T04:35:15.529Z,-1.09
2018-02-18T04:36:15.706Z,-1.12
2018-02-18T04:37:15.706Z,-1.09
2018-02-18T04:38:15.714Z,-1.11
2018-02-18T04:39:15.728Z,-1.13
2018-02-18T04:40:15.714Z,-1.13
2018-02-18T04:41:15.720Z,-1.18
2018-02-18T04:42:15.795Z,-1.19
2018-02-18T04:43:15.764Z,-1.23
2018-02-18T04:44:15.722Z,-1.23
2018-02-18T04:45:15.723Z,-1.2
2018-02-18T04:46:15.733Z,-1.18
2018-02-18T04:47:15.739Z,-1.18
2018-02-18T04:48:15.612Z,-1.16
2018-02-18T04:49:15.592Z,-1.19
2018-02-18T04:50:15.586Z,-1.16
2018-02-18T04:51:15.641Z,-1.19
2018-02-18T04:52:15.746Z,-1.16
2018-02-18T04:53:15.622Z,-1.16
2018-02-18T04:54:15.606Z,-1.16
2018-02-18T04:55:15.619Z,-1.16
2018-02-18T04:56:15.611Z,-1.13
2018-02-18T04:57:15.647Z,-1.15
2018-02-18T04:58:15.641Z,-1.13
2018-02-18T04:59:15.634Z,-1.15
2018-02-18T05:00:15.666Z,-1.18
2018-02-18T05:01:15.662Z,-1.18
2018-02-18T05:02:15.653Z,-1.18
2018-02-18T05:03:15.686Z,-1.16
2018-02-18T05:04:15.669Z,-1.15
2018-02-18T05:05:15.665Z,-1.16
2018-02-18T05:06:15.661Z,-1.15
2018-02-18T05:07:15.667Z,-1.16
2018-02-18T05:08:15.690Z,-1.16
2018-02-18T05:09:15.675Z,-1.13
2018-02-18T05:10:15.687Z,-1.18
2018-02-18T05:11:15.687Z,-1.16
2018-02-18T05:12:15.695Z,-1.16
2018-02-18T05:13:15.686Z,-1.22
2018-02-18T05:14:15.678Z,-1.18
2018-02-18T05:15:15.691Z,-1.19
2018-02-18T05:16:15.688Z,-1.16
2018-02-18T05:17:15.692Z,-1.15
2018-02-18T05:18:15.689Z,-1.15
2018-02-18T05:19:15.688Z,-1.12
2018-02-18T05:20:15.690Z,-1.16
2018-02-18T05:21:15.725Z,-1.13
2018-02-18T05:22:15.704Z,-1.13
2018-02-18T05:23:15.720Z,-1.15
2018-02-18T05:24:15.728Z,-1.16
2018-02-18T05:25:15.726Z,-1.13
2018-02-18T05:26:15.732Z,-1.12
2018-02-18T05:27:15.765Z,-1.12
2018-02-18T05:28:15.740Z,-1.09
2018-02-18T05:29:15.777Z,-1.11
2018-02-18T05:30:15.757Z,-1.13
2018-02-18T05:31:15.780Z,-1.13
2018-02-18T05:32:15.756Z,-1.13
2018-02-18T05:33:15.759Z,-1.18
2018-02-18T05:34:15.768Z,-1.15
2018-02-18T05:35:15.776Z,-1.18
2018-02-18T05:36:15.794Z,-1.18
2018-02-18T05:37:15.813Z,-1.16
2018-02-18T05:38:15.763Z,-1.16
2018-02-18T05:39:15.773Z,-1.15
2018-02-18T05:40:15.949Z,-1.15
2018-02-18T05:41:15.930Z,-1.12
2018-02-18T05:42:15.953Z,-1.13
2018-02-18T05:43:15.946Z,-1.15
2018-02-18T05:44:15.956Z,-1.16
2018-02-18T05:45:15.958Z,-1.18
2018-02-18T05:46:16.026Z,-1.15
2018-02-18T05:47:15.992Z,-1.16
2018-02-18T05:48:16.012Z,-1.19
2018-02-18T05:49:15.980Z,-1.18
2018-02-18T05:50:15.978Z,-1.19
2018-02-18T05:51:15.980Z,-1.16
2018-02-18T05:52:16.058Z,-1.19
2018-02-18T05:53:15.997Z,-1.19
2018-02-18T05:54:15.999Z,-1.2
2018-02-18T05:55:16.004Z,-1.2
2018-02-18T05:56:16.010Z,-1.25
2018-02-18T05:57:16.058Z,-1.35
2018-02-18T05:58:15.846Z,-1.35
2018-02-18T05:59:15.870Z,-1.36
2018-02-18T06:00:15.871Z,-1.36
2018-02-18T06:01:15.878Z,-1.37
2018-02-18T06:02:15.902Z,-1.37
2018-02-18T06:03:15.878Z,-1.36
2018-02-18T06:04:15.884Z,-1.4
2018-02-18T06:05:15.882Z,-1.43
2018-02-18T06:06:15.887Z,-1.43
2018-02-18T06:07:15.898Z,-1.43
2018-02-18T06:08:15.904Z,-1.41
2018-02-18T06:09:15.897Z,-1.41
2018-02-18T06:10:15.924Z,-1.4
2018-02-18T06:11:15.921Z,-1.44
2018-02-18T06:12:15.933Z,-1.43
2018-02-18T06:13:15.920Z,-1.44
2018-02-18T06:14:15.928Z,-1.46
2018-02-18T06:15:15.947Z,-1.43
2018-02-18T06:16:15.929Z,-1.4
2018-02-18T06:17:15.981Z,-1.41
2018-02-18T06:18:15.940Z,-1.41
2018-02-18T06:19:15.953Z,-1.41
2018-02-18T06:20:15.959Z,-1.41
2018-02-18T06:21:15.948Z,-1.43
2018-02-18T06:22:15.983Z,-1.44
2018-02-18T06:23:15.963Z,-1.41
2018-02-18T06:24:15.945Z,-1.43
2018-02-18T06:25:15.947Z,-1.43
2018-02-18T06:26:15.960Z,-1.43
2018-02-18T06:27:16.033Z,-1.46
2018-02-18T06:28:15.977Z,-1.43
2018-02-18T06:29:16.005Z,-1.44
2018-02-18T06:30:15.986Z,-1.44
2018-02-18T06:31:15.986Z,-1.43
2018-02-18T06:32:16.066Z,-1.46
2018-02-18T06:33:16.007Z,-1.44
2018-02-18T06:34:16.020Z,-1.44
2018-02-18T06:35:15.992Z,-1.47
2018-02-18T06:36:15.995Z,-1.43
2018-02-18T06:37:16.000Z,-1.47
2018-02-18T06:38:16.142Z,-1.47
2018-02-18T06:39:16.028Z,-1.47
2018-02-18T06:40:16.024Z,-1.53
2018-02-18T06:41:16.031Z,-1.57
2018-02-18T06:42:16.025Z,-1.53
2018-02-18T06:43:16.198Z,-1.54
2018-02-18T06:44:16.229Z,-1.54
2018-02-18T06:45:16.034Z,-1.54
2018-02-18T06:46:16.047Z,-1.51
2018-02-18T06:47:16.038Z,-1.54
2018-02-18T06:48:16.037Z,-1.51
2018-02-18T06:49:16.058Z,-1.53
2018-02-18T06:50:16.058Z,-1.53
2018-02-18T06:51:16.102Z,-1.53
2018-02-18T06:52:16.265Z,-1.53
2018-02-18T06:53:16.227Z,-1.53
2018-02-18T06:54:16.247Z,-1.54
2018-02-18T06:55:16.090Z,-1.5
2018-02-18T06:56:16.235Z,-1.54
2018-02-18T06:57:16.264Z,-1.5
2018-02-18T06:58:16.245Z,-1.51
2018-02-18T06:59:16.241Z,-1.51
2018-02-18T07:00:16.259Z,-1.5
2018-02-18T07:01:16.257Z,-1.48
2018-02-18T07:02:16.304Z,-1.54
2018-02-18T07:03:16.105Z,-1.57
2018-02-18T07:04:16.268Z,-1.61
2018-02-18T07:05:16.271Z,-1.61
2018-02-18T07:06:16.276Z,-1.63
2018-02-18T07:07:16.281Z,-1.63
2018-02-18T07:08:16.289Z,-1.67
2018-02-18T07:09:16.280Z,-1.74
2018-02-18T07:10:16.129Z,-1.74
2018-02-18T07:11:16.139Z,-1.79
2018-02-18T07:12:16.161Z,-1.82
2018-02-18T07:13:16.139Z,-1.86
2018-02-18T07:14:16.144Z,-1.88
2018-02-18T07:15:16.165Z,-1.89
2018-02-18T07:16:16.151Z,-1.85
2018-02-18T07:17:16.177Z,-1.79
2018-02-18T07:18:16.168Z,-1.82
2018-02-18T07:19:16.378Z,-1.79
2018-02-18T07:20:16.165Z,-1.79
2018-02-18T07:21:16.188Z,-1.82
2018-02-18T07:22:16.168Z,-1.82
2018-02-18T07:23:16.183Z,-1.81
2018-02-18T07:24:16.177Z,-1.76
2018-02-18T07:25:16.175Z,-1.75
2018-02-18T07:26:16.183Z,-1.76
2018-02-18T07:27:16.189Z,-1.79
2018-02-18T07:28:16.660Z,-1.75
2018-02-18T07:29:16.339Z,-1.74
2018-02-18T07:30:16.205Z,-1.67
2018-02-18T07:31:16.201Z,-1.67
2018-02-18T07:32:16.210Z,-1.7
2018-02-18T07:33:16.228Z,-1.7
2018-02-18T07:34:16.218Z,-1.7
2018-02-18T07:35:16.215Z,-1.68
2018-02-18T07:36:16.205Z,-1.67
2018-02-18T07:37:16.229Z,-1.64
2018-02-18T07:38:16.261Z,-1.63
2018-02-18T07:39:16.230Z,-1.6
2018-02-18T07:40:16.223Z,-1.58
2018-02-18T07:41:16.366Z,-1.57
2018-02-18T07:42:16.372Z,-1.55
2018-02-18T07:43:16.253Z,-1.51
2018-02-18T07:44:16.254Z,-1.53
2018-02-18T07:45:16.415Z,-1.47
2018-02-18T07:46:16.273Z,-1.46
2018-02-18T07:47:16.298Z,-1.46
2018-02-18T07:48:16.632Z,-1.43
2018-02-18T07:49:16.280Z,-1.41
2018-02-18T07:50:16.361Z,-1.39
2018-02-18T07:51:16.281Z,-1.36
2018-02-18T07:52:16.295Z,-1.36
2018-02-18T07:53:16.292Z,-1.35
2018-02-18T07:54:16.311Z,-1.32
2018-02-18T07:55:16.292Z,-1.3
2018-02-18T07:56:16.292Z,-1.27
2018-02-18T07:57:16.307Z,-1.25
2018-02-18T07:58:16.322Z,-1.22
2018-02-18T07:59:16.306Z,-1.15
2018-02-18T08:00:16.316Z,-1.13
2018-02-18T08:01:16.327Z,-1.11
2018-02-18T08:02:16.328Z,-1.09
2018-02-18T08:03:16.486Z,-1.08
2018-02-18T08:04:16.474Z,-1.05
2018-02-18T08:05:16.467Z,-1.03
2018-02-18T08:06:16.604Z,-0.99
2018-02-18T08:07:16.508Z,-0.96
2018-02-18T08:08:16.498Z,-0.93
2018-02-18T08:09:16.528Z,-0.91
2018-02-18T08:10:16.511Z,-0.86
2018-02-18T08:11:16.527Z,-0.82
2018-02-18T08:12:16.510Z,-0.78
2018-02-18T08:13:16.539Z,-0.8
2018-02-18T08:14:16.539Z,-0.74
2018-02-18T08:15:16.532Z,-0.71
2018-02-18T08:16:16.365Z,-0.7
2018-02-18T08:17:16.524Z,-0.64
2018-02-18T08:18:16.525Z,-0.65
2018-02-18T08:19:16.555Z,-0.64
2018-02-18T08:20:16.534Z,-0.63
2018-02-18T08:21:16.380Z,-0.58
2018-02-18T08:22:16.376Z,-0.57
2018-02-18T08:23:16.384Z,-0.58
2018-02-18T08:24:16.375Z,-0.58
2018-02-18T08:25:16.393Z,-0.54
2018-02-18T08:26:16.405Z,-0.53
2018-02-18T08:27:16.387Z,-0.49
2018-02-18T08:28:16.428Z,-0.47
2018-02-18T08:29:16.397Z,-0.45
2018-02-18T08:30:16.402Z,-0.42
2018-02-18T08:31:16.407Z,-0.39
2018-02-18T08:32:16.400Z,-0.36
2018-02-18T08:33:16.397Z,-0.32
2018-02-18T08:34:16.405Z,-0.28
2018-02-18T08:35:17.360Z,-0.28
2018-02-18T08:36:16.440Z,-0.21
2018-02-18T08:37:16.731Z,-0.23
2018-02-18T08:38:16.418Z,-0.22
2018-02-18T08:39:16.448Z,-0.18
2018-02-18T08:40:16.437Z,-0.17
2018-02-18T08:41:16.468Z,-0.15
2018-02-18T08:42:16.426Z,-0.12
2018-02-18T08:43:16.432Z,-0.15
2018-02-18T08:44:17.188Z,-0.14
2018-02-18T08:45:16.477Z,-0.12
2018-02-18T08:46:16.446Z,-0.12
2018-02-18T08:47:16.546Z,-0.08
2018-02-18T08:48:16.448Z,-0.07
2018-02-18T08:49:16.452Z,-0.04
2018-02-18T08:50:16.450Z,-0.04
2018-02-18T08:51:16.616Z,0.02
2018-02-18T08:52:16.617Z,0.03
2018-02-18T08:53:16.470Z,0.05
2018-02-18T08:54:16.472Z,0.08
2018-02-18T08:55:16.455Z,0.05
2018-02-18T08:56:16.456Z,0.05
2018-02-18T08:57:16.472Z,0.05
2018-02-18T08:58:16.475Z,0.06
2018-02-18T08:59:16.469Z,0.08
2018-02-18T09:00:16.488Z,0.1
2018-02-18T09:01:16.490Z,0.1
2018-02-18T09:02:16.512Z,0.09
2018-02-18T09:03:16.509Z,0.12
2018-02-18T09:04:16.617Z,0.13
2018-02-18T09:05:16.522Z,0.13
2018-02-18T09:06:16.735Z,0.13
2018-02-18T09:07:16.535Z,0.15
2018-02-18T09:08:16.751Z,0.19
2018-02-18T09:10:16.560Z,0.23
2018-02-18T09:11:16.553Z,0.3
2018-02-18T09:12:16.597Z,0.33
2018-02-18T09:13:16.578Z,0.36
2018-02-18T09:14:16.908Z,0.34
2018-02-18T09:15:16.787Z,0.38
2018-02-18T09:16:16.816Z,0.38
2018-02-18T09:17:16.808Z,0.38
2018-02-18T09:18:16.820Z,0.43
2018-02-18T09:19:16.828Z,0.48
2018-02-18T09:20:16.870Z,0.53
2018-02-18T09:21:16.902Z,0.54
2018-02-18T09:22:16.776Z,0.61
2018-02-18T09:23:16.756Z,0.65
2018-02-18T09:24:16.873Z,0.68
2018-02-18T09:25:16.769Z,0.69
2018-02-18T09:26:16.874Z,0.74
2018-02-18T09:27:16.885Z,0.75
2018-02-18T09:28:16.893Z,0.76
2018-02-18T09:29:16.783Z,0.82
2018-02-18T09:30:16.898Z,0.82
2018-02-18T09:31:16.806Z,0.86
2018-02-18T09:32:16.825Z,0.82
2018-02-18T09:33:16.790Z,0.85
2018-02-18T09:34:16.801Z,0.86
2018-02-18T09:35:16.832Z,0.83
2018-02-18T09:36:16.830Z,0.88
2018-02-18T09:37:16.832Z,0.93
2018-02-18T09:38:16.840Z,0.96
2018-02-18T09:39:16.655Z,0.98
2018-02-18T09:40:16.661Z,1
2018-02-18T09:41:16.669Z,1.03
2018-02-18T09:42:16.659Z,1.03
2018-02-18T09:43:16.662Z,1.07
2018-02-18T09:44:16.690Z,1.09
2018-02-18T09:45:16.661Z,1.11
2018-02-18T09:46:16.667Z,1.17
2018-02-18T09:47:16.714Z,1.22
2018-02-18T09:48:16.667Z,1.22
2018-02-18T09:49:16.730Z,1.2
2018-02-18T09:50:16.691Z,1.19
2018-02-18T09:51:16.694Z,1.2
2018-02-18T09:52:16.746Z,1.22
2018-02-18T09:53:16.702Z,1.27
2018-02-18T09:54:16.767Z,1.27
2018-02-18T09:55:16.702Z,1.34
2018-02-18T09:56:16.693Z,1.37
2018-02-18T09:57:16.699Z,1.41
2018-02-18T09:58:16.788Z,1.41
2018-02-18T09:59:16.741Z,1.44
2018-02-18T10:00:16.725Z,1.45
2018-02-18T10:01:16.719Z,1.51
2018-02-18T10:02:16.707Z,1.53
2018-02-18T10:03:16.716Z,1.58
2018-02-18T10:04:16.842Z,1.59
2018-02-18T10:05:16.847Z,1.59
2018-02-18T10:06:16.740Z,1.59
2018-02-18T10:07:16.732Z,1.64
2018-02-18T10:08:16.775Z,1.72
2018-02-18T10:09:16.731Z,1.69
2018-02-18T10:10:17.445Z,1.68
2018-02-18T10:11:16.793Z,1.69
2018-02-18T10:12:16.776Z,1.75
2018-02-18T10:13:16.760Z,1.78
2018-02-18T10:14:16.876Z,1.82
2018-02-18T10:15:16.755Z,1.83
2018-02-18T10:16:16.748Z,1.86
2018-02-18T10:17:16.735Z,1.86
2018-02-18T10:18:16.740Z,1.83
2018-02-18T10:19:16.733Z,1.85
2018-02-18T10:20:16.754Z,1.83
2018-02-18T10:21:16.860Z,1.85
2018-02-18T10:22:16.839Z,1.85
2018-02-18T10:23:16.846Z,1.9
2018-02-18T10:24:16.870Z,1.94
2018-02-18T10:25:17.186Z,1.92
2018-02-18T10:26:16.776Z,1.96
2018-02-18T10:27:16.983Z,1.99
2018-02-18T10:28:16.948Z,1.99
2018-02-18T10:29:17.224Z,2.01
2018-02-18T10:30:16.959Z,2
2018-02-18T10:31:16.966Z,2.03
2018-02-18T10:32:16.822Z,2.04
2018-02-18T10:33:17.049Z,2.03
2018-02-18T10:34:17.036Z,2.03
2018-02-18T10:35:16.971Z,2.09
2018-02-18T10:36:16.861Z,2.09
2018-02-18T10:37:16.950Z,2.04
2018-02-18T10:38:16.999Z,2.07
2018-02-18T10:39:16.862Z,2.1
2018-02-18T10:40:17.010Z,2.14
2018-02-18T10:41:16.871Z,2.17
2018-02-18T10:42:17.000Z,2.24
2018-02-18T10:43:17.013Z,2.28
2018-02-18T10:44:17.037Z,2.31
2018-02-18T10:45:16.902Z,2.34
2018-02-18T10:46:17.027Z,2.37
2018-02-18T10:47:17.021Z,2.37
2018-02-18T10:48:17.131Z,2.37
2018-02-18T10:49:17.021Z,2.37
2018-02-18T10:50:17.056Z,2.41
2018-02-18T10:51:16.906Z,2.48
2018-02-18T10:52:16.879Z,2.45
2018-02-18T10:53:16.894Z,2.47
2018-02-18T10:54:17.102Z,2.51
2018-02-18T10:55:17.041Z,2.54
2018-02-18T10:56:17.041Z,2.55
2018-02-18T10:57:17.063Z,2.56
2018-02-18T10:58:16.892Z,2.54
2018-02-18T10:59:16.909Z,2.44
2018-02-18T11:00:17.070Z,2.48
2018-02-18T11:01:17.078Z,2.56
2018-02-18T11:02:16.901Z,2.62
2018-02-18T11:03:17.025Z,2.65
2018-02-18T11:04:16.926Z,2.72
2018-02-18T11:05:16.934Z,2.77
2018-02-18T11:06:16.926Z,2.84
2018-02-18T11:07:16.939Z,2.87
2018-02-18T11:08:16.937Z,2.77
2018-02-18T11:09:16.937Z,2.75
2018-02-18T11:10:16.952Z,2.86
2018-02-18T11:11:16.928Z,2.9
2018-02-18T11:12:16.962Z,2.94
2018-02-18T11:13:16.957Z,3.01
2018-02-18T11:14:17.010Z,3.06
2018-02-18T11:15:16.937Z,3.1
2018-02-18T11:16:16.945Z,3.2
2018-02-18T11:17:16.965Z,3.22
2018-02-18T11:18:17.029Z,3.22
2018-02-18T11:19:16.975Z,3.27
2018-02-18T11:20:16.974Z,3.29
2018-02-18T11:21:17.006Z,3.31
2018-02-18T11:22:17.073Z,3.38
2018-02-18T11:23:17.134Z,3.37
2018-02-18T11:24:17.063Z,3.44
2018-02-18T11:25:16.994Z,3.48
2018-02-18T11:26:17.003Z,3.55
2018-02-18T11:27:17.018Z,3.56
2018-02-18T11:28:17.041Z,3.59
2018-02-18T11:29:17.011Z,3.59
2018-02-18T11:30:17.217Z,3.62
2018-02-18T11:31:17.009Z,3.65
2018-02-18T11:32:17.028Z,3.67
2018-02-18T11:33:17.139Z,3.74
2018-02-18T11:34:17.041Z,3.83
2018-02-18T11:35:17.041Z,3.86
2018-02-18T11:36:17.180Z,3.89
2018-02-18T11:37:17.053Z,3.91
2018-02-18T11:38:17.243Z,3.86
2018-02-18T11:39:17.217Z,3.8
2018-02-18T11:40:17.260Z,3.83
2018-02-18T11:41:17.288Z,3.87
2018-02-18T11:42:17.200Z,3.89
2018-02-18T11:43:17.051Z,3.94
2018-02-18T11:44:17.226Z,4
2018-02-18T11:45:17.232Z,4.08
2018-02-18T11:46:17.251Z,4.15
2018-02-18T11:47:17.228Z,4.15
2018-02-18T11:48:17.234Z,4.21
2018-02-18T11:49:17.082Z,4.29
2018-02-18T11:50:17.094Z,4.26
2018-02-18T11:51:17.112Z,4.35
2018-02-18T11:52:17.143Z,4.33
2018-02-18T11:53:17.229Z,4.39
2018-02-18T11:54:17.285Z,4.42
2018-02-18T11:55:17.250Z,4.39
2018-02-18T11:56:17.085Z,4.4
2018-02-18T11:57:17.303Z,4.42
2018-02-18T11:58:17.283Z,4.39
2018-02-18T11:59:17.118Z,4.48
2018-02-18T12:00:17.343Z,4.53
2018-02-18T12:01:17.323Z,4.57
2018-02-18T12:02:17.113Z,4.55
2018-02-18T12:03:17.361Z,4.59
2018-02-18T12:04:17.329Z,4.57
2018-02-18T12:05:17.126Z,4.63
2018-02-18T12:06:17.181Z,4.69
2018-02-18T12:07:17.152Z,4.7
2018-02-18T12:08:17.128Z,4.79
2018-02-18T12:09:17.392Z,4.83
2018-02-18T12:10:17.308Z,4.83
2018-02-18T12:11:17.146Z,4.81
2018-02-18T12:12:17.142Z,4.76
2018-02-18T12:13:17.153Z,4.77
2018-02-18T12:14:17.314Z,4.81
2018-02-18T12:15:17.166Z,4.88
2018-02-18T12:16:17.339Z,4.86
2018-02-18T12:17:17.150Z,4.91
2018-02-18T12:18:17.185Z,4.91
2018-02-18T12:19:17.254Z,4.97
2018-02-18T12:20:17.205Z,4.97
2018-02-18T12:21:17.167Z,5.02
2018-02-18T12:22:17.171Z,5.05
2018-02-18T12:23:17.173Z,5.1
2018-02-18T12:24:17.412Z,5.11
2018-02-18T12:25:17.342Z,5.1
2018-02-18T12:26:17.203Z,5.14
2018-02-18T12:27:17.375Z,5.1
2018-02-18T12:28:17.191Z,5.08
2018-02-18T12:29:17.366Z,5.04
2018-02-18T12:30:17.439Z,5.1
2018-02-18T12:31:17.216Z,5.11
2018-02-18T12:32:17.362Z,5.15
2018-02-18T12:33:17.461Z,5.16
2018-02-18T12:34:17.517Z,5.21
2018-02-18T12:35:17.227Z,5.21
2018-02-18T12:36:17.267Z,5.21
2018-02-18T12:37:17.390Z,5.19
2018-02-18T12:38:17.386Z,5.29
2018-02-18T12:39:17.252Z,5.26
2018-02-18T12:40:17.249Z,5.3
2018-02-18T12:41:17.261Z,5.39
2018-02-18T12:42:17.263Z,5.38
2018-02-18T12:43:17.248Z,5.47
2018-02-18T12:44:17.252Z,5.49
2018-02-18T12:45:17.262Z,5.49
2018-02-18T12:46:17.286Z,5.49
2018-02-18T12:47:17.543Z,5.47
2018-02-18T12:48:17.464Z,5.5
2018-02-18T12:49:17.456Z,5.51
2018-02-18T12:50:17.447Z,5.49
2018-02-18T12:51:17.574Z,5.47
2018-02-18T12:52:19.619Z,5.39
2018-02-18T12:53:17.452Z,5.32
2018-02-18T12:54:17.452Z,5.23
2018-02-18T12:55:17.451Z,5.25
2018-02-18T12:56:17.473Z,5.33
2018-02-18T12:57:17.483Z,5.39
2018-02-18T12:58:17.306Z,5.51
2018-02-18T12:59:17.323Z,5.54
2018-02-18T13:00:17.387Z,5.56
2018-02-18T13:01:17.478Z,5.56
2018-02-18T13:02:17.350Z,5.64
2018-02-18T13:03:17.447Z,5.67
2018-02-18T13:04:17.393Z,5.66
2018-02-18T13:05:17.497Z,5.69
2018-02-18T13:06:17.472Z,5.67
2018-02-18T13:07:17.354Z,5.73
2018-02-18T13:08:17.364Z,5.75
2018-02-18T13:09:17.377Z,5.75